Terminal Aerodrome Forecast
Issued by NWS Mt. Holly, NJ

Home | Current Version | Previous Version | Text Only | Print | Product List | Glossary On
Versions: 1 2 3 4 5 6 7 8 9 10 11 12 13 14 15 16 17
000
FTUS41 KPHI 050341 AAA
TAFRDG
TAF AMD
KRDG 050341Z 0504/0524 12004KT P6SM SCT015 BKN035
     FM050700 06004KT 4SM BR FEW009 BKN015
      TEMPO 0510/0512 BKN009
     FM051400 08007KT P6SM SCT025 BKN050=

USA.gov is the U.S. government's official web portal to all federal, state and local government web resources and services.